createdAt,value
2022-10-23T00:01:29.337Z,13.15
2022-10-23T00:08:31.165Z,12.52
2022-10-23T00:15:34.843Z,12.63
2022-10-23T00:22:37.411Z,12.60
2022-10-23T00:29:39.206Z,12.13
2022-10-23T00:36:41.302Z,14.60
2022-10-23T00:44:05.303Z,14.55
2022-10-23T00:51:07.105Z,14.43
2022-10-23T00:58:08.937Z,16.17
2022-10-23T01:05:11.108Z,16.33
2022-10-23T01:12:15.905Z,16.30
2022-10-23T01:19:20.635Z,16.95
2022-10-23T01:26:34.682Z,16.88
2022-10-23T01:33:39.671Z,17.23
2022-10-23T01:40:47.752Z,17.63
2022-10-23T01:47:50.951Z,17.05
2022-10-23T01:54:54.384Z,17.38
2022-10-23T02:01:58.457Z,17.13
2022-10-23T02:09:00.372Z,15.68
2022-10-23T02:16:17.930Z,15.93
2022-10-23T02:23:22.190Z,15.30
2022-10-23T02:30:23.932Z,16.50
2022-10-23T02:37:26.918Z,14.65
2022-10-23T02:44:51.532Z,15.52
2022-10-23T02:52:02.478Z,15.82
2022-10-23T02:59:10.428Z,14.15
2022-10-23T03:06:12.215Z,15.60
2022-10-23T03:13:14.009Z,14.98
2022-10-23T03:20:15.980Z,15.15
2022-10-23T03:27:17.855Z,14.35
2022-10-23T03:34:19.664Z,13.90
2022-10-23T03:41:21.567Z,14.88
2022-10-23T03:48:25.181Z,15.02
2022-10-23T03:55:27.624Z,15.00
2022-10-23T04:02:29.683Z,14.45
2022-10-23T04:09:31.512Z,14.15
2022-10-23T04:16:33.439Z,13.93
2022-10-23T04:23:35.241Z,14.30
2022-10-23T04:30:36.979Z,13.43
2022-10-23T04:37:38.673Z,14.02
2022-10-23T04:44:40.488Z,14.25
2022-10-23T04:51:42.252Z,15.07
2022-10-23T04:58:44.016Z,15.20
2022-10-23T05:05:46.129Z,14.43
2022-10-23T05:12:47.922Z,13.25
2022-10-23T05:19:54.707Z,13.77
2022-10-23T05:26:56.652Z,13.32
2022-10-23T05:33:58.622Z,14.20
2022-10-23T05:41:00.419Z,14.05
2022-10-23T05:48:11.093Z,15.23
2022-10-23T05:55:19.895Z,15.52
2022-10-23T06:02:21.729Z,15.57
2022-10-23T06:09:23.575Z,14.27
2022-10-23T06:16:27.157Z,15.63
2022-10-23T06:23:30.435Z,16.52
2022-10-23T06:30:32.313Z,18.67
2022-10-23T06:37:34.938Z,18.55
2022-10-23T06:44:36.980Z,17.35
2022-10-23T06:51:38.877Z,18.13
2022-10-23T06:58:41.332Z,16.27
2022-10-23T07:05:45.116Z,16.77
2022-10-23T07:12:49.029Z,14.68
2022-10-23T07:19:50.805Z,14.57
2022-10-23T07:26:52.512Z,13.77
2022-10-23T07:33:54.505Z,12.65
2022-10-23T07:40:59.590Z,13.35
2022-10-23T07:48:01.391Z,14.90
2022-10-23T07:55:03.281Z,14.18
2022-10-23T08:02:05.104Z,13.82
2022-10-23T08:09:07.253Z,14.27
2022-10-23T08:16:09.041Z,10.25
2022-10-23T08:23:12.675Z,14.27
2022-10-23T08:30:14.545Z,13.15
2022-10-23T08:37:16.483Z,14.48
2022-10-23T08:44:24.726Z,14.63
2022-10-23T08:51:30.207Z,12.65
2022-10-23T08:58:34.932Z,13.68
2022-10-23T09:06:02.638Z,11.43
2022-10-23T09:13:23.263Z,12.07
2022-10-23T09:20:26.461Z,14.00
2022-10-23T09:27:28.385Z,12.93
2022-10-23T09:34:31.654Z,10.05
2022-10-23T09:41:38.090Z,11.70
2022-10-23T09:48:42.667Z,12.18
2022-10-23T09:55:51.486Z,18.77
2022-10-23T10:02:58.105Z,21.23
2022-10-23T10:10:00.042Z,11.23
2022-10-23T10:17:20.596Z,12.75
2022-10-23T10:24:34.673Z,15.65
2022-10-23T10:31:36.334Z,10.70
2022-10-23T10:38:47.674Z,13.90
2022-10-23T10:45:52.938Z,13.20
2022-10-23T10:53:07.469Z,14.25
2022-10-23T11:00:18.044Z,13.98
2022-10-23T11:07:22.707Z,16.40
2022-10-23T11:14:26.415Z,16.00
2022-10-23T11:21:44.700Z,16.35
2022-10-23T11:28:52.602Z,14.45
2022-10-23T11:36:01.006Z,13.63
2022-10-23T11:43:02.815Z,12.77
2022-10-23T11:50:12.220Z,12.13
2022-10-23T11:57:15.667Z,12.65
2022-10-23T12:04:25.589Z,12.05
2022-10-23T12:11:29.021Z,12.68
2022-10-23T12:18:31.836Z,12.60
2022-10-23T12:25:52.589Z,16.70
2022-10-23T12:32:54.864Z,15.75
2022-10-23T12:39:56.889Z,11.65
2022-10-23T12:47:01.042Z,15.63
2022-10-23T12:54:03.492Z,14.82
2022-10-23T13:01:06.723Z,17.27
2022-10-23T13:08:10.770Z,14.05
2022-10-23T13:15:12.783Z,15.05
2022-10-23T13:22:20.408Z,16.80
2022-10-23T13:36:28.247Z,17.27
2022-10-23T13:43:33.938Z,16.90
2022-10-23T13:50:36.377Z,16.33
2022-10-23T13:57:38.319Z,17.52
2022-10-23T14:04:40.544Z,13.63
2022-10-23T14:11:42.881Z,13.93
2022-10-23T14:18:44.937Z,18.63
2022-10-23T14:25:46.681Z,17.13
2022-10-23T14:32:50.196Z,16.73
2022-10-23T14:39:51.862Z,15.82
2022-10-23T14:46:54.751Z,16.15
2022-10-23T14:54:02.737Z,15.80
2022-10-23T15:01:07.193Z,16.38
2022-10-23T15:08:10.121Z,16.85
2022-10-23T15:15:12.816Z,15.95
2022-10-23T15:22:17.195Z,15.43
2022-10-23T15:29:22.385Z,15.60
2022-10-23T15:36:26.678Z,18.20
2022-10-23T15:43:34.066Z,18.02
2022-10-23T15:50:38.727Z,18.65
2022-10-23T15:57:43.181Z,18.92
2022-10-23T16:04:47.912Z,17.77
2022-10-23T16:11:52.655Z,19.48
2022-10-23T16:18:55.254Z,19.63
2022-10-23T16:25:59.417Z,19.20
2022-10-23T16:33:02.544Z,18.83
2022-10-23T16:40:13.923Z,19.92
2022-10-23T16:47:16.610Z,21.15
2022-10-23T16:54:18.923Z,19.05
2022-10-23T17:01:25.273Z,20.58
2022-10-23T17:08:31.853Z,17.63
2022-10-23T17:15:34.260Z,23.73
2022-10-23T17:22:38.458Z,17.67
2022-10-23T17:29:41.073Z,19.17
2022-10-23T17:36:45.124Z,26.17
2022-10-23T17:43:47.395Z,28.50
2022-10-23T17:50:52.273Z,18.50
2022-10-23T17:57:54.220Z,20.45
2022-10-23T18:04:56.741Z,22.25
2022-10-23T18:11:59.191Z,22.75
2022-10-23T18:19:02.083Z,23.63
2022-10-23T18:26:05.380Z,26.67
2022-10-23T18:33:07.941Z,25.08
2022-10-23T18:40:10.493Z,23.17
2022-10-23T18:47:13.088Z,24.48
2022-10-23T18:54:17.419Z,26.23
2022-10-23T19:01:20.066Z,23.38
2022-10-23T19:08:22.674Z,20.98
2022-10-23T19:15:25.232Z,20.45
2022-10-23T19:22:30.378Z,25.70
2022-10-23T19:29:33.384Z,22.48
2022-10-23T19:36:38.171Z,22.20
2022-10-23T19:43:41.586Z,19.92
2022-10-23T19:50:44.455Z,21.85
2022-10-23T19:57:47.688Z,20.90
2022-10-23T20:04:50.277Z,22.75
2022-10-23T20:11:52.652Z,19.90
2022-10-23T20:18:54.906Z,21.48
2022-10-23T20:26:07.310Z,19.63
2022-10-23T20:33:09.411Z,21.80
2022-10-23T20:40:12.642Z,18.02
2022-10-23T20:47:15.321Z,19.35
2022-10-23T20:54:17.306Z,20.63
2022-10-23T21:01:19.857Z,21.13
2022-10-23T21:08:22.070Z,21.98
2022-10-23T21:15:24.039Z,22.38
2022-10-23T21:22:26.004Z,21.15
2022-10-23T21:29:31.304Z,24.48
2022-10-23T21:36:48.266Z,22.30
2022-10-23T21:43:59.872Z,20.70
2022-10-23T21:51:02.182Z,20.90
2022-10-23T21:58:03.967Z,22.63
2022-10-23T22:05:05.742Z,18.73
2022-10-23T22:12:07.759Z,18.38
2022-10-23T22:19:13.137Z,19.10
2022-10-23T22:26:25.423Z,18.80
2022-10-23T22:33:27.746Z,18.52
2022-10-23T22:40:29.827Z,19.95
2022-10-23T22:47:31.678Z,18.20
2022-10-23T22:54:33.603Z,20.45
2022-10-23T23:01:37.219Z,19.05
2022-10-23T23:08:42.861Z,18.33
2022-10-23T23:15:44.810Z,17.00
2022-10-23T23:22:46.971Z,18.90
2022-10-23T23:29:49.027Z,18.67
2022-10-23T23:36:51.228Z,17.15
2022-10-23T23:43:57.045Z,18.85
2022-10-23T23:50:59.033Z,18.67
2022-10-23T23:58:00.740Z,17.45
